sensor_id;sensor_type;location;lat;lon;timestamp;P1;durP1;ratioP1;P2;durP2;ratioP2
12658;SDS011;6394;52.488;13.386;2022-11-20T00:01:32;12.67;;;9.17;;
12658;SDS011;6394;52.488;13.386;2022-11-20T00:03:59;12.23;;;7.57;;
12658;SDS011;6394;52.488;13.386;2022-11-20T00:06:28;11.37;;;8.20;;
12658;SDS011;6394;52.488;13.386;2022-11-20T00:08:56;13.00;;;9.03;;
12658;SDS011;6394;52.488;13.386;2022-11-20T00:11:25;13.80;;;9.23;;
12658;SDS011;6394;52.488;13.386;2022-11-20T00:13:53;8.97;;;6.20;;
12658;SDS011;6394;52.488;13.386;2022-11-20T00:16:22;13.97;;;9.60;;
12658;SDS011;6394;52.488;13.386;2022-11-20T00:18:50;16.45;;;13.60;;
12658;SDS011;6394;52.488;13.386;2022-11-20T00:21:18;13.87;;;10.77;;
12658;SDS011;6394;52.488;13.386;2022-11-20T00:23:46;14.80;;;10.43;;
12658;SDS011;6394;52.488;13.386;2022-11-20T00:26:15;12.73;;;9.40;;
12658;SDS011;6394;52.488;13.386;2022-11-20T00:28:42;9.23;;;6.13;;
12658;SDS011;6394;52.488;13.386;2022-11-20T00:31:13;14.87;;;9.00;;
12658;SDS011;6394;52.488;13.386;2022-11-20T00:33:40;13.80;;;9.13;;
12658;SDS011;6394;52.488;13.386;2022-11-20T00:36:08;12.83;;;9.40;;
12658;SDS011;6394;52.488;13.386;2022-11-20T00:38:36;13.67;;;9.37;;
12658;SDS011;6394;52.488;13.386;2022-11-20T00:41:06;11.70;;;8.63;;
12658;SDS011;6394;52.488;13.386;2022-11-20T00:43:34;12.13;;;8.67;;
12658;SDS011;6394;52.488;13.386;2022-11-20T00:46:02;12.37;;;8.67;;
12658;SDS011;6394;52.488;13.386;2022-11-20T00:48:29;12.23;;;7.37;;
12658;SDS011;6394;52.488;13.386;2022-11-20T00:50:57;12.23;;;8.23;;
12658;SDS011;6394;52.488;13.386;2022-11-20T00:53:24;14.10;;;7.40;;
12658;SDS011;6394;52.488;13.386;2022-11-20T00:55:52;14.87;;;9.20;;
12658;SDS011;6394;52.488;13.386;2022-11-20T00:58:21;14.23;;;9.17;;
12658;SDS011;6394;52.488;13.386;2022-11-20T01:00:48;15.73;;;8.90;;
12658;SDS011;6394;52.488;13.386;2022-11-20T01:03:16;13.50;;;9.70;;
12658;SDS011;6394;52.488;13.386;2022-11-20T01:05:43;13.53;;;9.57;;
12658;SDS011;6394;52.488;13.386;2022-11-20T01:08:10;15.17;;;8.83;;
12658;SDS011;6394;52.488;13.386;2022-11-20T01:10:37;14.07;;;8.90;;
12658;SDS011;6394;52.488;13.386;2022-11-20T01:13:04;13.87;;;9.60;;
12658;SDS011;6394;52.488;13.386;2022-11-20T01:15:51;10.07;;;6.27;;
12658;SDS011;6394;52.488;13.386;2022-11-20T01:18:18;12.00;;;7.73;;
12658;SDS011;6394;52.488;13.386;2022-11-20T01:20:45;12.97;;;9.03;;
12658;SDS011;6394;52.488;13.386;2022-11-20T01:23:12;12.17;;;8.60;;
12658;SDS011;6394;52.488;13.386;2022-11-20T01:25:39;13.93;;;8.80;;
12658;SDS011;6394;52.488;13.386;2022-11-20T01:28:06;11.90;;;8.73;;
12658;SDS011;6394;52.488;13.386;2022-11-20T01:30:34;13.47;;;9.60;;
12658;SDS011;6394;52.488;13.386;2022-11-20T01:33:02;12.90;;;9.00;;
12658;SDS011;6394;52.488;13.386;2022-11-20T01:35:29;12.63;;;8.97;;
12658;SDS011;6394;52.488;13.386;2022-11-20T01:37:57;11.90;;;8.13;;
12658;SDS011;6394;52.488;13.386;2022-11-20T01:40:24;15.13;;;9.57;;
12658;SDS011;6394;52.488;13.386;2022-11-20T01:42:52;12.70;;;8.97;;
12658;SDS011;6394;52.488;13.386;2022-11-20T01:48:32;14.70;;;10.30;;
12658;SDS011;6394;52.488;13.386;2022-11-20T01:51:04;12.70;;;8.10;;
12658;SDS011;6394;52.488;13.386;2022-11-20T01:53:34;13.00;;;7.93;;
12658;SDS011;6394;52.488;13.386;2022-11-20T01:56:02;14.50;;;8.80;;
12658;SDS011;6394;52.488;13.386;2022-11-20T02:00:58;6.83;;;4.87;;
12658;SDS011;6394;52.488;13.386;2022-11-20T02:03:25;12.57;;;8.50;;
12658;SDS011;6394;52.488;13.386;2022-11-20T02:05:55;14.47;;;9.17;;
12658;SDS011;6394;52.488;13.386;2022-11-20T02:08:24;15.80;;;9.70;;
12658;SDS011;6394;52.488;13.386;2022-11-20T02:10:51;13.30;;;9.33;;
12658;SDS011;6394;52.488;13.386;2022-11-20T02:13:18;14.27;;;9.03;;
12658;SDS011;6394;52.488;13.386;2022-11-20T02:16:19;15.43;;;9.17;;
12658;SDS011;6394;52.488;13.386;2022-11-20T02:18:48;13.03;;;8.13;;
12658;SDS011;6394;52.488;13.386;2022-11-20T02:21:28;14.73;;;9.03;;
12658;SDS011;6394;52.488;13.386;2022-11-20T02:24:02;12.47;;;8.00;;
12658;SDS011;6394;52.488;13.386;2022-11-20T02:26:30;12.97;;;9.47;;
12658;SDS011;6394;52.488;13.386;2022-11-20T02:28:58;13.47;;;9.03;;
12658;SDS011;6394;52.488;13.386;2022-11-20T02:31:27;9.43;;;7.17;;
12658;SDS011;6394;52.488;13.386;2022-11-20T02:33:55;12.00;;;8.20;;
12658;SDS011;6394;52.488;13.386;2022-11-20T02:36:22;11.97;;;8.77;;
12658;SDS011;6394;52.488;13.386;2022-11-20T02:38:50;13.93;;;9.43;;
12658;SDS011;6394;52.488;13.386;2022-11-20T02:41:19;16.17;;;10.07;;
12658;SDS011;6394;52.488;13.386;2022-11-20T02:43:47;15.63;;;9.37;;
12658;SDS011;6394;52.488;13.386;2022-11-20T02:46:14;15.70;;;10.33;;
12658;SDS011;6394;52.488;13.386;2022-11-20T02:48:41;13.13;;;9.63;;
12658;SDS011;6394;52.488;13.386;2022-11-20T02:51:08;12.23;;;9.30;;
12658;SDS011;6394;52.488;13.386;2022-11-20T02:53:36;14.67;;;9.37;;
12658;SDS011;6394;52.488;13.386;2022-11-20T02:56:03;13.60;;;9.93;;
12658;SDS011;6394;52.488;13.386;2022-11-20T02:58:32;13.40;;;9.73;;
12658;SDS011;6394;52.488;13.386;2022-11-20T03:00:59;15.00;;;9.70;;
12658;SDS011;6394;52.488;13.386;2022-11-20T03:03:26;16.00;;;10.40;;
12658;SDS011;6394;52.488;13.386;2022-11-20T03:05:54;13.47;;;9.43;;
12658;SDS011;6394;52.488;13.386;2022-11-20T03:08:21;12.50;;;9.67;;
12658;SDS011;6394;52.488;13.386;2022-11-20T03:10:48;13.17;;;8.73;;
12658;SDS011;6394;52.488;13.386;2022-11-20T03:13:16;14.70;;;8.53;;
12658;SDS011;6394;52.488;13.386;2022-11-20T03:15:45;17.33;;;9.60;;
12658;SDS011;6394;52.488;13.386;2022-11-20T03:18:12;12.03;;;8.63;;
12658;SDS011;6394;52.488;13.386;2022-11-20T03:20:39;12.83;;;9.23;;
12658;SDS011;6394;52.488;13.386;2022-11-20T03:23:07;12.57;;;8.53;;
12658;SDS011;6394;52.488;13.386;2022-11-20T03:25:34;13.27;;;9.40;;
12658;SDS011;6394;52.488;13.386;2022-11-20T03:28:01;13.93;;;9.60;;
12658;SDS011;6394;52.488;13.386;2022-11-20T03:30:28;12.87;;;8.90;;
12658;SDS011;6394;52.488;13.386;2022-11-20T03:32:57;13.53;;;10.17;;
12658;SDS011;6394;52.488;13.386;2022-11-20T03:35:25;13.53;;;9.23;;
12658;SDS011;6394;52.488;13.386;2022-11-20T03:37:52;13.10;;;9.53;;
12658;SDS011;6394;52.488;13.386;2022-11-20T03:40:19;13.60;;;9.40;;
12658;SDS011;6394;52.488;13.386;2022-11-20T03:42:46;16.10;;;9.67;;
12658;SDS011;6394;52.488;13.386;2022-11-20T03:45:14;15.07;;;10.13;;
12658;SDS011;6394;52.488;13.386;2022-11-20T03:47:41;12.87;;;9.83;;
12658;SDS011;6394;52.488;13.386;2022-11-20T03:50:10;14.43;;;8.93;;
12658;SDS011;6394;52.488;13.386;2022-11-20T03:52:38;14.23;;;9.67;;
12658;SDS011;6394;52.488;13.386;2022-11-20T03:55:06;14.73;;;9.97;;
12658;SDS011;6394;52.488;13.386;2022-11-20T03:57:33;15.37;;;10.37;;
12658;SDS011;6394;52.488;13.386;2022-11-20T04:00:00;14.80;;;9.70;;
12658;SDS011;6394;52.488;13.386;2022-11-20T04:02:27;15.33;;;10.57;;
12658;SDS011;6394;52.488;13.386;2022-11-20T04:04:55;13.73;;;9.50;;
12658;SDS011;6394;52.488;13.386;2022-11-20T04:07:24;14.97;;;10.20;;
12658;SDS011;6394;52.488;13.386;2022-11-20T04:09:51;14.70;;;10.37;;
12658;SDS011;6394;52.488;13.386;2022-11-20T04:12:18;15.00;;;9.50;;
12658;SDS011;6394;52.488;13.386;2022-11-20T04:14:46;15.30;;;10.10;;
12658;SDS011;6394;52.488;13.386;2022-11-20T04:17:13;14.73;;;9.47;;
12658;SDS011;6394;52.488;13.386;2022-11-20T04:19:40;13.40;;;9.37;;
12658;SDS011;6394;52.488;13.386;2022-11-20T04:22:07;14.20;;;9.93;;
12658;SDS011;6394;52.488;13.386;2022-11-20T04:24:37;17.20;;;10.37;;
12658;SDS011;6394;52.488;13.386;2022-11-20T04:27:05;15.20;;;10.60;;
12658;SDS011;6394;52.488;13.386;2022-11-20T04:29:32;17.27;;;8.63;;
12658;SDS011;6394;52.488;13.386;2022-11-20T04:31:59;14.50;;;9.70;;
12658;SDS011;6394;52.488;13.386;2022-11-20T04:34:26;14.27;;;9.97;;
12658;SDS011;6394;52.488;13.386;2022-11-20T04:36:54;12.87;;;8.93;;
12658;SDS011;6394;52.488;13.386;2022-11-20T04:39:21;15.73;;;8.90;;
12658;SDS011;6394;52.488;13.386;2022-11-20T04:41:49;12.80;;;9.30;;
12658;SDS011;6394;52.488;13.386;2022-11-20T04:44:37;15.13;;;9.93;;
12658;SDS011;6394;52.488;13.386;2022-11-20T04:47:04;18.47;;;10.40;;
12658;SDS011;6394;52.488;13.386;2022-11-20T04:49:32;14.33;;;9.63;;
12658;SDS011;6394;52.488;13.386;2022-11-20T04:51:59;13.63;;;9.80;;
12658;SDS011;6394;52.488;13.386;2022-11-20T04:54:26;16.97;;;11.17;;
12658;SDS011;6394;52.488;13.386;2022-11-20T04:56:55;13.17;;;9.90;;
12658;SDS011;6394;52.488;13.386;2022-11-20T04:59:22;16.33;;;10.90;;
12658;SDS011;6394;52.488;13.386;2022-11-20T05:01:49;13.57;;;9.10;;
12658;SDS011;6394;52.488;13.386;2022-11-20T05:04:16;13.27;;;9.87;;
12658;SDS011;6394;52.488;13.386;2022-11-20T05:06:44;15.50;;;10.70;;
12658;SDS011;6394;52.488;13.386;2022-11-20T05:09:11;12.03;;;8.10;;
12658;SDS011;6394;52.488;13.386;2022-11-20T05:11:38;16.77;;;11.17;;
12658;SDS011;6394;52.488;13.386;2022-11-20T05:14:07;14.50;;;10.90;;
12658;SDS011;6394;52.488;13.386;2022-11-20T05:16:34;16.33;;;10.37;;
12658;SDS011;6394;52.488;13.386;2022-11-20T05:19:02;15.47;;;11.33;;
12658;SDS011;6394;52.488;13.386;2022-11-20T05:21:29;16.17;;;10.67;;
12658;SDS011;6394;52.488;13.386;2022-11-20T05:23:57;14.03;;;9.93;;
12658;SDS011;6394;52.488;13.386;2022-11-20T05:26:24;15.40;;;10.27;;
12658;SDS011;6394;52.488;13.386;2022-11-20T05:28:51;14.00;;;10.13;;
12658;SDS011;6394;52.488;13.386;2022-11-20T05:31:21;15.57;;;10.30;;
12658;SDS011;6394;52.488;13.386;2022-11-20T05:33:49;15.53;;;10.97;;
12658;SDS011;6394;52.488;13.386;2022-11-20T05:36:16;16.43;;;9.87;;
12658;SDS011;6394;52.488;13.386;2022-11-20T05:38:43;16.87;;;11.03;;
12658;SDS011;6394;52.488;13.386;2022-11-20T05:41:11;14.93;;;10.57;;
12658;SDS011;6394;52.488;13.386;2022-11-20T05:43:40;16.77;;;11.50;;
12658;SDS011;6394;52.488;13.386;2022-11-20T05:46:08;16.53;;;10.97;;
12658;SDS011;6394;52.488;13.386;2022-11-20T05:48:37;15.77;;;10.00;;
12658;SDS011;6394;52.488;13.386;2022-11-20T05:51:05;16.57;;;10.60;;
12658;SDS011;6394;52.488;13.386;2022-11-20T05:53:32;17.73;;;10.90;;
12658;SDS011;6394;52.488;13.386;2022-11-20T05:56:00;14.93;;;11.27;;
12658;SDS011;6394;52.488;13.386;2022-11-20T05:58:28;17.50;;;11.13;;
12658;SDS011;6394;52.488;13.386;2022-11-20T06:00:58;16.13;;;10.73;;
12658;SDS011;6394;52.488;13.386;2022-11-20T06:03:29;14.63;;;10.50;;
12658;SDS011;6394;52.488;13.386;2022-11-20T06:05:59;13.63;;;9.80;;
12658;SDS011;6394;52.488;13.386;2022-11-20T06:08:28;14.63;;;9.10;;
12658;SDS011;6394;52.488;13.386;2022-11-20T06:10:55;14.93;;;10.60;;
12658;SDS011;6394;52.488;13.386;2022-11-20T06:13:23;16.53;;;10.87;;
12658;SDS011;6394;52.488;13.386;2022-11-20T06:15:50;16.20;;;10.30;;
12658;SDS011;6394;52.488;13.386;2022-11-20T06:18:17;15.33;;;10.67;;
12658;SDS011;6394;52.488;13.386;2022-11-20T06:20:45;15.17;;;10.73;;
12658;SDS011;6394;52.488;13.386;2022-11-20T06:23:13;14.50;;;9.80;;
12658;SDS011;6394;52.488;13.386;2022-11-20T06:25:41;13.47;;;9.37;;
12658;SDS011;6394;52.488;13.386;2022-11-20T06:28:09;14.17;;;9.53;;
12658;SDS011;6394;52.488;13.386;2022-11-20T06:30:36;14.80;;;10.17;;
12658;SDS011;6394;52.488;13.386;2022-11-20T06:33:03;15.07;;;9.70;;
12658;SDS011;6394;52.488;13.386;2022-11-20T06:35:30;13.73;;;10.07;;
12658;SDS011;6394;52.488;13.386;2022-11-20T06:37:57;14.73;;;9.80;;
12658;SDS011;6394;52.488;13.386;2022-11-20T06:40:26;15.23;;;10.87;;
12658;SDS011;6394;52.488;13.386;2022-11-20T06:42:53;15.30;;;9.50;;
12658;SDS011;6394;52.488;13.386;2022-11-20T06:45:21;15.53;;;10.00;;
12658;SDS011;6394;52.488;13.386;2022-11-20T06:47:48;14.10;;;10.17;;
12658;SDS011;6394;52.488;13.386;2022-11-20T06:50:15;16.67;;;11.10;;
12658;SDS011;6394;52.488;13.386;2022-11-20T06:52:43;17.60;;;11.20;;
12658;SDS011;6394;52.488;13.386;2022-11-20T06:55:10;16.40;;;11.00;;
12658;SDS011;6394;52.488;13.386;2022-11-20T06:57:39;14.20;;;10.03;;
12658;SDS011;6394;52.488;13.386;2022-11-20T07:00:06;15.17;;;10.63;;
12658;SDS011;6394;52.488;13.386;2022-11-20T07:02:34;15.20;;;10.77;;
12658;SDS011;6394;52.488;13.386;2022-11-20T07:05:01;15.23;;;11.20;;
12658;SDS011;6394;52.488;13.386;2022-11-20T07:07:28;15.83;;;10.67;;
12658;SDS011;6394;52.488;13.386;2022-11-20T07:09:56;13.47;;;9.43;;
12658;SDS011;6394;52.488;13.386;2022-11-20T07:12:23;15.20;;;10.20;;
12658;SDS011;6394;52.488;13.386;2022-11-20T07:14:52;19.13;;;10.30;;
12658;SDS011;6394;52.488;13.386;2022-11-20T07:17:19;14.93;;;10.27;;
12658;SDS011;6394;52.488;13.386;2022-11-20T07:19:46;13.77;;;9.57;;
12658;SDS011;6394;52.488;13.386;2022-11-20T07:22:14;12.07;;;7.53;;
12658;SDS011;6394;52.488;13.386;2022-11-20T07:24:41;14.07;;;9.47;;
12658;SDS011;6394;52.488;13.386;2022-11-20T07:27:08;10.77;;;7.33;;
12658;SDS011;6394;52.488;13.386;2022-11-20T07:29:35;15.47;;;10.60;;
12658;SDS011;6394;52.488;13.386;2022-11-20T07:32:05;16.93;;;10.63;;
12658;SDS011;6394;52.488;13.386;2022-11-20T07:34:32;13.47;;;9.13;;
12658;SDS011;6394;52.488;13.386;2022-11-20T07:37:00;17.50;;;11.17;;
12658;SDS011;6394;52.488;13.386;2022-11-20T07:39:27;16.77;;;10.67;;
12658;SDS011;6394;52.488;13.386;2022-11-20T07:41:54;14.60;;;8.20;;
12658;SDS011;6394;52.488;13.386;2022-11-20T07:44:22;13.20;;;9.30;;
12658;SDS011;6394;52.488;13.386;2022-11-20T07:46:49;10.63;;;6.67;;
12658;SDS011;6394;52.488;13.386;2022-11-20T07:49:18;15.97;;;10.27;;
12658;SDS011;6394;52.488;13.386;2022-11-20T07:51:45;15.20;;;10.43;;
12658;SDS011;6394;52.488;13.386;2022-11-20T07:54:12;12.93;;;8.70;;
12658;SDS011;6394;52.488;13.386;2022-11-20T07:56:39;15.60;;;9.80;;
12658;SDS011;6394;52.488;13.386;2022-11-20T07:59:07;17.53;;;11.60;;
12658;SDS011;6394;52.488;13.386;2022-11-20T08:01:36;13.30;;;7.67;;
12658;SDS011;6394;52.488;13.386;2022-11-20T08:04:04;17.30;;;10.97;;
12658;SDS011;6394;52.488;13.386;2022-11-20T08:06:33;18.20;;;11.07;;
12658;SDS011;6394;52.488;13.386;2022-11-20T08:09:00;17.47;;;11.30;;
12658;SDS011;6394;52.488;13.386;2022-11-20T08:11:27;15.33;;;10.50;;
12658;SDS011;6394;52.488;13.386;2022-11-20T08:14:12;15.70;;;10.90;;
12658;SDS011;6394;52.488;13.386;2022-11-20T08:16:39;17.50;;;11.17;;
12658;SDS011;6394;52.488;13.386;2022-11-20T08:19:06;15.37;;;10.77;;
12658;SDS011;6394;52.488;13.386;2022-11-20T08:21:35;14.73;;;10.20;;
12658;SDS011;6394;52.488;13.386;2022-11-20T08:24:03;13.37;;;7.73;;
12658;SDS011;6394;52.488;13.386;2022-11-20T08:26:30;11.93;;;7.70;;
12658;SDS011;6394;52.488;13.386;2022-11-20T08:28:57;15.63;;;10.77;;
12658;SDS011;6394;52.488;13.386;2022-11-20T08:31:25;17.57;;;9.10;;
12658;SDS011;6394;52.488;13.386;2022-11-20T08:33:53;12.97;;;8.73;;
12658;SDS011;6394;52.488;13.386;2022-11-20T08:36:21;17.10;;;11.87;;
12658;SDS011;6394;52.488;13.386;2022-11-20T08:38:50;16.60;;;11.07;;
12658;SDS011;6394;52.488;13.386;2022-11-20T08:41:17;16.77;;;11.63;;
12658;SDS011;6394;52.488;13.386;2022-11-20T08:43:52;16.00;;;10.53;;
12658;SDS011;6394;52.488;13.386;2022-11-20T08:46:20;15.90;;;11.00;;
12658;SDS011;6394;52.488;13.386;2022-11-20T08:48:47;15.83;;;11.23;;
12658;SDS011;6394;52.488;13.386;2022-11-20T08:51:14;17.30;;;11.00;;
12658;SDS011;6394;52.488;13.386;2022-11-20T08:53:42;13.13;;;8.80;;
12658;SDS011;6394;52.488;13.386;2022-11-20T08:56:11;15.80;;;10.13;;
12658;SDS011;6394;52.488;13.386;2022-11-20T08:58:39;15.87;;;9.33;;
12658;SDS011;6394;52.488;13.386;2022-11-20T09:01:07;17.07;;;11.80;;
12658;SDS011;6394;52.488;13.386;2022-11-20T09:06:08;17.33;;;11.10;;
12658;SDS011;6394;52.488;13.386;2022-11-20T09:08:35;14.43;;;8.63;;
12658;SDS011;6394;52.488;13.386;2022-11-20T09:11:02;17.47;;;11.03;;
12658;SDS011;6394;52.488;13.386;2022-11-20T09:13:32;16.80;;;10.30;;
12658;SDS011;6394;52.488;13.386;2022-11-20T09:16:01;15.40;;;11.13;;
12658;SDS011;6394;52.488;13.386;2022-11-20T09:18:28;15.97;;;10.20;;
12658;SDS011;6394;52.488;13.386;2022-11-20T09:20:57;16.97;;;11.60;;
12658;SDS011;6394;52.488;13.386;2022-11-20T09:23:25;16.80;;;10.87;;
12658;SDS011;6394;52.488;13.386;2022-11-20T09:25:52;16.50;;;10.23;;
12658;SDS011;6394;52.488;13.386;2022-11-20T09:28:24;12.97;;;9.47;;
12658;SDS011;6394;52.488;13.386;2022-11-20T09:30:53;17.53;;;10.23;;
12658;SDS011;6394;52.488;13.386;2022-11-20T09:33:20;11.33;;;7.10;;
12658;SDS011;6394;52.488;13.386;2022-11-20T09:35:47;17.13;;;9.87;;
12658;SDS011;6394;52.488;13.386;2022-11-20T09:38:14;14.50;;;10.73;;
12658;SDS011;6394;52.488;13.386;2022-11-20T09:40:44;13.90;;;10.03;;
12658;SDS011;6394;52.488;13.386;2022-11-20T09:43:13;15.13;;;9.83;;
12658;SDS011;6394;52.488;13.386;2022-11-20T09:45:47;15.80;;;10.33;;
12658;SDS011;6394;52.488;13.386;2022-11-20T09:51:11;13.87;;;8.97;;
12658;SDS011;6394;52.488;13.386;2022-11-20T09:53:42;13.73;;;10.03;;
12658;SDS011;6394;52.488;13.386;2022-11-20T09:56:13;18.53;;;12.60;;
12658;SDS011;6394;52.488;13.386;2022-11-20T09:58:41;14.77;;;10.40;;
12658;SDS011;6394;52.488;13.386;2022-11-20T10:01:11;15.23;;;9.20;;
12658;SDS011;6394;52.488;13.386;2022-11-20T10:03:41;10.27;;;6.27;;
12658;SDS011;6394;52.488;13.386;2022-11-20T10:06:15;11.07;;;6.73;;
12658;SDS011;6394;52.488;13.386;2022-11-20T10:08:44;15.20;;;10.03;;
12658;SDS011;6394;52.488;13.386;2022-11-20T10:11:13;14.60;;;9.20;;
12658;SDS011;6394;52.488;13.386;2022-11-20T10:13:45;10.17;;;7.40;;
12658;SDS011;6394;52.488;13.386;2022-11-20T10:16:17;12.83;;;10.27;;
12658;SDS011;6394;52.488;13.386;2022-11-20T10:18:51;11.03;;;6.60;;
12658;SDS011;6394;52.488;13.386;2022-11-20T10:21:25;12.23;;;9.07;;
12658;SDS011;6394;52.488;13.386;2022-11-20T10:26:42;12.63;;;7.80;;
12658;SDS011;6394;52.488;13.386;2022-11-20T10:29:11;13.77;;;9.27;;
12658;SDS011;6394;52.488;13.386;2022-11-20T10:31:40;16.23;;;11.57;;
12658;SDS011;6394;52.488;13.386;2022-11-20T10:34:12;17.70;;;10.93;;
12658;SDS011;6394;52.488;13.386;2022-11-20T10:36:46;12.23;;;8.93;;
12658;SDS011;6394;52.488;13.386;2022-11-20T10:39:16;15.40;;;10.17;;
12658;SDS011;6394;52.488;13.386;2022-11-20T10:41:44;14.20;;;10.50;;
12658;SDS011;6394;52.488;13.386;2022-11-20T10:44:16;13.30;;;9.43;;
12658;SDS011;6394;52.488;13.386;2022-11-20T10:47:04;14.57;;;10.53;;
12658;SDS011;6394;52.488;13.386;2022-11-20T10:49:32;12.33;;;9.07;;
12658;SDS011;6394;52.488;13.386;2022-11-20T10:52:04;15.50;;;9.60;;
12658;SDS011;6394;52.488;13.386;2022-11-20T10:54:37;11.80;;;9.13;;
12658;SDS011;6394;52.488;13.386;2022-11-20T10:57:07;14.30;;;9.90;;
12658;SDS011;6394;52.488;13.386;2022-11-20T10:59:51;13.47;;;8.03;;
12658;SDS011;6394;52.488;13.386;2022-11-20T11:02:23;12.10;;;7.27;;
12658;SDS011;6394;52.488;13.386;2022-11-20T11:04:50;16.13;;;10.50;;
12658;SDS011;6394;52.488;13.386;2022-11-20T11:07:20;15.60;;;10.23;;
12658;SDS011;6394;52.488;13.386;2022-11-20T11:09:50;13.73;;;10.20;;
12658;SDS011;6394;52.488;13.386;2022-11-20T11:12:17;11.30;;;8.87;;
12658;SDS011;6394;52.488;13.386;2022-11-20T11:14:46;13.00;;;9.90;;
12658;SDS011;6394;52.488;13.386;2022-11-20T11:17:26;14.23;;;10.43;;
12658;SDS011;6394;52.488;13.386;2022-11-20T11:19:58;13.17;;;9.43;;
12658;SDS011;6394;52.488;13.386;2022-11-20T11:22:26;12.60;;;8.73;;
12658;SDS011;6394;52.488;13.386;2022-11-20T11:27:27;14.37;;;9.90;;
12658;SDS011;6394;52.488;13.386;2022-11-20T11:32:43;12.87;;;8.47;;
12658;SDS011;6394;52.488;13.386;2022-11-20T11:35:21;13.03;;;9.30;;
12658;SDS011;6394;52.488;13.386;2022-11-20T11:37:50;12.37;;;9.03;;
12658;SDS011;6394;52.488;13.386;2022-11-20T11:40:19;15.43;;;10.33;;
12658;SDS011;6394;52.488;13.386;2022-11-20T11:42:49;15.90;;;9.90;;
12658;SDS011;6394;52.488;13.386;2022-11-20T11:45:18;9.57;;;6.67;;
12658;SDS011;6394;52.488;13.386;2022-11-20T11:47:45;10.60;;;8.17;;
12658;SDS011;6394;52.488;13.386;2022-11-20T11:50:14;12.33;;;9.47;;
12658;SDS011;6394;52.488;13.386;2022-11-20T11:52:43;9.23;;;7.20;;
12658;SDS011;6394;52.488;13.386;2022-11-20T11:55:14;14.23;;;9.10;;
12658;SDS011;6394;52.488;13.386;2022-11-20T11:57:43;9.03;;;6.17;;
12658;SDS011;6394;52.488;13.386;2022-11-20T12:00:14;9.80;;;6.77;;
12658;SDS011;6394;52.488;13.386;2022-11-20T12:02:48;14.60;;;8.27;;
12658;SDS011;6394;52.488;13.386;2022-11-20T12:05:17;12.50;;;7.83;;
12658;SDS011;6394;52.488;13.386;2022-11-20T12:07:46;14.67;;;9.37;;
12658;SDS011;6394;52.488;13.386;2022-11-20T12:10:22;14.03;;;10.20;;
12658;SDS011;6394;52.488;13.386;2022-11-20T12:12:52;12.03;;;8.33;;
12658;SDS011;6394;52.488;13.386;2022-11-20T12:15:25;14.30;;;9.27;;
12658;SDS011;6394;52.488;13.386;2022-11-20T12:17:52;19.97;;;12.50;;
12658;SDS011;6394;52.488;13.386;2022-11-20T12:20:20;12.77;;;9.73;;
12658;SDS011;6394;52.488;13.386;2022-11-20T12:22:51;13.93;;;10.20;;
12658;SDS011;6394;52.488;13.386;2022-11-20T12:25:24;14.27;;;9.17;;
12658;SDS011;6394;52.488;13.386;2022-11-20T12:30:35;12.97;;;8.70;;
12658;SDS011;6394;52.488;13.386;2022-11-20T12:33:12;10.20;;;6.80;;
12658;SDS011;6394;52.488;13.386;2022-11-20T12:35:51;14.57;;;8.87;;
12658;SDS011;6394;52.488;13.386;2022-11-20T12:38:37;10.20;;;5.40;;
12658;SDS011;6394;52.488;13.386;2022-11-20T12:41:09;10.67;;;6.60;;
12658;SDS011;6394;52.488;13.386;2022-11-20T12:43:39;10.50;;;5.90;;
12658;SDS011;6394;52.488;13.386;2022-11-20T12:49:01;10.33;;;5.70;;
12658;SDS011;6394;52.488;13.386;2022-11-20T12:51:36;10.27;;;4.57;;
12658;SDS011;6394;52.488;13.386;2022-11-20T12:54:22;8.60;;;5.83;;
12658;SDS011;6394;52.488;13.386;2022-11-20T12:56:55;8.57;;;6.07;;
12658;SDS011;6394;52.488;13.386;2022-11-20T12:59:29;9.33;;;5.63;;
12658;SDS011;6394;52.488;13.386;2022-11-20T13:02:02;7.93;;;5.00;;
12658;SDS011;6394;52.488;13.386;2022-11-20T13:04:34;8.27;;;5.17;;
12658;SDS011;6394;52.488;13.386;2022-11-20T13:07:07;17.30;;;6.80;;
12658;SDS011;6394;52.488;13.386;2022-11-20T13:09:42;8.73;;;6.27;;
12658;SDS011;6394;52.488;13.386;2022-11-20T13:12:13;7.83;;;5.63;;
12658;SDS011;6394;52.488;13.386;2022-11-20T13:14:45;6.67;;;4.07;;
12658;SDS011;6394;52.488;13.386;2022-11-20T13:17:16;8.33;;;5.83;;
12658;SDS011;6394;52.488;13.386;2022-11-20T13:19:46;8.67;;;5.43;;
12658;SDS011;6394;52.488;13.386;2022-11-20T13:22:23;8.43;;;5.87;;
12658;SDS011;6394;52.488;13.386;2022-11-20T13:24:51;6.97;;;4.67;;
12658;SDS011;6394;52.488;13.386;2022-11-20T13:27:20;6.30;;;4.63;;
12658;SDS011;6394;52.488;13.386;2022-11-20T13:29:58;7.37;;;5.47;;
12658;SDS011;6394;52.488;13.386;2022-11-20T13:32:26;7.80;;;5.33;;
12658;SDS011;6394;52.488;13.386;2022-11-20T13:34:57;7.57;;;5.73;;
12658;SDS011;6394;52.488;13.386;2022-11-20T13:37:26;8.53;;;5.43;;
12658;SDS011;6394;52.488;13.386;2022-11-20T13:40:04;8.00;;;5.97;;
12658;SDS011;6394;52.488;13.386;2022-11-20T13:42:34;7.90;;;4.27;;
12658;SDS011;6394;52.488;13.386;2022-11-20T13:45:08;6.83;;;4.93;;
12658;SDS011;6394;52.488;13.386;2022-11-20T13:47:35;5.63;;;4.53;;
12658;SDS011;6394;52.488;13.386;2022-11-20T13:50:03;5.43;;;3.70;;
12658;SDS011;6394;52.488;13.386;2022-11-20T13:52:37;6.73;;;4.80;;
12658;SDS011;6394;52.488;13.386;2022-11-20T13:55:11;6.70;;;4.93;;
12658;SDS011;6394;52.488;13.386;2022-11-20T13:57:48;7.70;;;5.37;;
12658;SDS011;6394;52.488;13.386;2022-11-20T14:00:19;6.90;;;4.93;;
12658;SDS011;6394;52.488;13.386;2022-11-20T14:02:49;7.70;;;4.73;;
12658;SDS011;6394;52.488;13.386;2022-11-20T14:05:21;9.27;;;4.53;;
12658;SDS011;6394;52.488;13.386;2022-11-20T14:07:49;9.00;;;5.83;;
12658;SDS011;6394;52.488;13.386;2022-11-20T14:10:20;10.00;;;5.57;;
12658;SDS011;6394;52.488;13.386;2022-11-20T14:12:49;8.73;;;5.30;;
12658;SDS011;6394;52.488;13.386;2022-11-20T14:15:27;9.17;;;5.53;;
12658;SDS011;6394;52.488;13.386;2022-11-20T14:17:54;7.07;;;5.53;;
12658;SDS011;6394;52.488;13.386;2022-11-20T14:20:23;10.30;;;6.57;;
12658;SDS011;6394;52.488;13.386;2022-11-20T14:22:51;8.33;;;5.60;;
12658;SDS011;6394;52.488;13.386;2022-11-20T14:25:22;9.53;;;4.33;;
12658;SDS011;6394;52.488;13.386;2022-11-20T14:27:54;8.00;;;4.93;;
12658;SDS011;6394;52.488;13.386;2022-11-20T14:30:23;9.33;;;5.17;;
12658;SDS011;6394;52.488;13.386;2022-11-20T14:32:51;8.47;;;6.07;;
12658;SDS011;6394;52.488;13.386;2022-11-20T14:35:20;8.97;;;5.27;;
12658;SDS011;6394;52.488;13.386;2022-11-20T14:37:48;7.50;;;5.23;;
12658;SDS011;6394;52.488;13.386;2022-11-20T14:40:23;5.03;;;3.33;;
12658;SDS011;6394;52.488;13.386;2022-11-20T14:42:50;7.87;;;5.80;;
12658;SDS011;6394;52.488;13.386;2022-11-20T14:45:19;7.60;;;5.80;;
12658;SDS011;6394;52.488;13.386;2022-11-20T14:47:47;9.40;;;6.47;;
12658;SDS011;6394;52.488;13.386;2022-11-20T14:50:17;9.43;;;6.10;;
12658;SDS011;6394;52.488;13.386;2022-11-20T14:52:55;7.67;;;5.47;;
12658;SDS011;6394;52.488;13.386;2022-11-20T14:55:27;7.20;;;4.53;;
12658;SDS011;6394;52.488;13.386;2022-11-20T14:57:55;5.77;;;4.30;;
12658;SDS011;6394;52.488;13.386;2022-11-20T15:00:24;7.93;;;5.17;;
12658;SDS011;6394;52.488;13.386;2022-11-20T15:02:52;9.67;;;6.30;;
12658;SDS011;6394;52.488;13.386;2022-11-20T15:05:20;9.50;;;6.23;;
12658;SDS011;6394;52.488;13.386;2022-11-20T15:07:48;9.87;;;6.73;;
12658;SDS011;6394;52.488;13.386;2022-11-20T15:10:20;6.87;;;5.23;;